createdAt,value
2019-02-23T00:01:23.538Z,11.05
2019-02-23T00:03:50.381Z,9.63
2019-02-23T00:06:29.041Z,12.07
2019-02-23T00:08:46.164Z,11.03
2019-02-23T00:11:13.414Z,13.20
2019-02-23T00:13:40.116Z,10.05
2019-02-23T00:16:07.305Z,9.75
2019-02-23T00:18:34.619Z,10.03
2019-02-23T00:21:01.720Z,13.45
2019-02-23T00:23:28.461Z,13.45
2019-02-23T00:25:55.395Z,11.80
2019-02-23T00:28:22.133Z,11.05
2019-02-23T00:30:49.030Z,13.68
2019-02-23T00:33:15.973Z,11.63
2019-02-23T00:35:42.747Z,12.95
2019-02-23T00:38:13.319Z,13.68
2019-02-23T00:40:40.659Z,13.78
2019-02-23T00:43:07.388Z,12.95
2019-02-23T00:45:34.236Z,11.38
2019-02-23T00:48:01.009Z,13.90
2019-02-23T00:50:28.270Z,14.75
2019-02-23T00:52:55.359Z,15.88
2019-02-23T00:55:22.191Z,14.55
2019-02-23T00:57:49.051Z,14.53
2019-02-23T01:00:15.849Z,11.73
2019-02-23T01:02:43.200Z,12.25
2019-02-23T01:05:10.176Z,11.88
2019-02-23T01:07:37.330Z,13.00
2019-02-23T01:10:08.392Z,13.75
2019-02-23T01:12:35.291Z,12.70
2019-02-23T01:15:02.205Z,14.15
2019-02-23T01:17:29.091Z,13.13
2019-02-23T01:19:59.378Z,14.80
2019-02-23T01:22:27.309Z,13.28
2019-02-23T01:24:54.468Z,12.95
2019-02-23T01:27:21.698Z,13.15
2019-02-23T01:29:48.605Z,14.43
2019-02-23T01:32:15.436Z,10.35
2019-02-23T01:34:42.191Z,12.55
2019-02-23T01:37:10.850Z,11.15
2019-02-23T01:39:40.248Z,15.90
2019-02-23T01:42:07.019Z,11.43
2019-02-23T01:44:33.921Z,11.57
2019-02-23T01:47:01.011Z,13.05
2019-02-23T01:49:27.781Z,12.98
2019-02-23T01:51:54.939Z,14.80
2019-02-23T01:54:21.679Z,11.30
2019-02-23T01:56:49.246Z,11.25
2019-02-23T01:59:15.986Z,16.42
2019-02-23T02:01:43.303Z,16.10
2019-02-23T02:04:10.488Z,12.65
2019-02-23T02:06:37.260Z,13.93
2019-02-23T02:09:04.660Z,10.45
2019-02-23T02:11:31.895Z,15.45
2019-02-23T02:13:58.816Z,12.40
2019-02-23T02:16:26.043Z,10.75
2019-02-23T02:18:52.826Z,13.72
2019-02-23T02:21:19.995Z,13.10
2019-02-23T02:23:47.248Z,12.88
2019-02-23T02:26:14.281Z,13.32
2019-02-23T02:28:41.150Z,11.73
2019-02-23T02:31:09.041Z,11.43
2019-02-23T02:34:02.059Z,11.68
2019-02-23T02:36:28.883Z,12.85
2019-02-23T02:38:55.731Z,13.08
2019-02-23T02:41:22.570Z,13.00
2019-02-23T02:43:49.466Z,12.13
2019-02-23T02:46:16.218Z,12.25
2019-02-23T02:48:43.188Z,13.15
2019-02-23T02:51:09.954Z,13.55
2019-02-23T02:53:37.036Z,14.68
2019-02-23T02:56:03.910Z,15.32
2019-02-23T02:58:31.131Z,14.40
2019-02-23T03:00:58.249Z,14.65
2019-02-23T03:03:25.029Z,14.03
2019-02-23T03:05:51.930Z,14.10
2019-02-23T03:08:19.388Z,13.72
2019-02-23T03:10:46.214Z,13.85
2019-02-23T03:13:13.005Z,13.83
2019-02-23T03:15:40.537Z,12.43
2019-02-23T03:18:07.366Z,14.38
2019-02-23T03:20:36.832Z,11.33
2019-02-23T03:23:03.468Z,12.20
2019-02-23T03:25:30.274Z,14.87
2019-02-23T03:27:57.530Z,14.07
2019-02-23T03:30:27.325Z,12.80
2019-02-23T03:32:54.193Z,13.10
2019-02-23T03:35:21.738Z,14.60
2019-02-23T03:37:48.988Z,13.43
2019-02-23T03:40:15.809Z,13.78
2019-02-23T03:42:42.614Z,13.22
2019-02-23T03:45:09.386Z,12.85
2019-02-23T03:47:38.583Z,14.23
2019-02-23T03:50:06.901Z,13.83
2019-02-23T03:52:33.791Z,13.08
2019-02-23T03:55:00.552Z,14.10
2019-02-23T03:57:27.392Z,14.43
2019-02-23T03:59:54.305Z,14.80
2019-02-23T04:02:21.408Z,15.60
2019-02-23T04:04:50.097Z,15.10
2019-02-23T04:07:17.011Z,13.98
2019-02-23T04:09:44.257Z,13.15
2019-02-23T04:12:11.537Z,15.03
2019-02-23T04:14:38.686Z,13.53
2019-02-23T04:17:07.781Z,17.45
2019-02-23T04:19:35.346Z,15.85
2019-02-23T04:22:02.166Z,15.88
2019-02-23T04:24:29.069Z,13.55
2019-02-23T04:26:55.913Z,16.67
2019-02-23T04:29:23.111Z,15.72
2019-02-23T04:31:50.378Z,14.98
2019-02-23T04:34:17.315Z,16.15
2019-02-23T04:36:44.441Z,13.60
2019-02-23T04:39:11.240Z,13.53
2019-02-23T04:41:38.089Z,15.15
2019-02-23T04:44:04.893Z,14.75
2019-02-23T04:46:31.631Z,15.38
2019-02-23T04:48:58.457Z,15.48
2019-02-23T04:51:25.250Z,13.78
2019-02-23T04:53:52.047Z,17.40
2019-02-23T04:56:18.810Z,17.70
2019-02-23T04:58:47.622Z,16.55
2019-02-23T05:01:14.430Z,15.58
2019-02-23T05:03:41.598Z,16.70
2019-02-23T05:06:08.404Z,22.22
2019-02-23T05:08:35.565Z,16.48
2019-02-23T05:11:02.383Z,16.25
2019-02-23T05:13:29.150Z,15.65
2019-02-23T05:15:55.946Z,15.00
2019-02-23T05:18:22.804Z,17.80
2019-02-23T05:20:49.569Z,15.23
2019-02-23T05:23:17.235Z,15.38
2019-02-23T05:25:45.159Z,14.13
2019-02-23T05:28:12.500Z,15.83
2019-02-23T05:30:39.382Z,15.90
2019-02-23T05:33:06.165Z,15.63
2019-02-23T05:35:32.948Z,15.45
2019-02-23T05:37:59.717Z,16.25
2019-02-23T05:40:27.047Z,18.15
2019-02-23T05:43:00.906Z,17.95
2019-02-23T05:45:22.549Z,16.37
2019-02-23T05:47:49.688Z,16.02
2019-02-23T05:50:17.348Z,15.53
2019-02-23T05:52:44.323Z,16.93
2019-02-23T05:55:11.242Z,17.20
2019-02-23T05:57:38.223Z,17.73
2019-02-23T06:00:10.663Z,17.20
2019-02-23T06:02:37.802Z,17.87
2019-02-23T06:05:08.130Z,18.80
2019-02-23T06:07:34.902Z,19.62
2019-02-23T06:10:02.622Z,21.33
2019-02-23T06:12:29.394Z,18.62
2019-02-23T06:14:56.118Z,19.17
2019-02-23T06:17:22.878Z,17.37
2019-02-23T06:19:49.655Z,17.92
2019-02-23T06:22:16.730Z,19.55
2019-02-23T06:24:43.549Z,21.50
2019-02-23T06:27:10.434Z,20.90
2019-02-23T06:29:37.318Z,20.97
2019-02-23T06:32:04.454Z,18.70
2019-02-23T06:34:31.528Z,17.82
2019-02-23T06:36:58.444Z,18.87
2019-02-23T06:39:30.834Z,22.35
2019-02-23T06:41:58.847Z,18.87
2019-02-23T06:44:25.961Z,19.12
2019-02-23T06:46:52.949Z,21.20
2019-02-23T06:49:19.831Z,19.82
2019-02-23T06:51:46.681Z,21.07
2019-02-23T06:54:13.463Z,22.45
2019-02-23T06:56:40.577Z,20.80
2019-02-23T06:59:07.353Z,21.75
2019-02-23T07:01:36.729Z,22.20
2019-02-23T07:04:03.900Z,19.12
2019-02-23T07:06:30.761Z,22.45
2019-02-23T07:08:57.515Z,19.00
2019-02-23T07:11:24.382Z,18.02
2019-02-23T07:13:51.293Z,20.95
2019-02-23T07:16:18.450Z,22.52
2019-02-23T07:18:45.382Z,20.10
2019-02-23T07:21:12.301Z,19.90
2019-02-23T07:23:39.403Z,20.85
2019-02-23T07:26:06.323Z,23.02
2019-02-23T07:28:33.122Z,23.45
2019-02-23T07:30:59.982Z,23.30
2019-02-23T07:33:32.949Z,27.22
2019-02-23T07:35:55.675Z,23.80
2019-02-23T07:38:22.480Z,25.75
2019-02-23T07:40:49.295Z,26.95
2019-02-23T07:43:16.371Z,24.67
2019-02-23T07:45:43.482Z,24.67
2019-02-23T07:48:10.251Z,23.95
2019-02-23T07:50:37.112Z,24.37
2019-02-23T07:53:04.694Z,25.27
2019-02-23T07:55:31.831Z,26.12
2019-02-23T07:57:58.680Z,28.70
2019-02-23T08:00:25.951Z,30.82
2019-02-23T08:02:52.884Z,28.65
2019-02-23T08:05:19.776Z,23.95
2019-02-23T08:07:46.936Z,27.98
2019-02-23T08:10:14.418Z,27.42
2019-02-23T08:12:41.570Z,24.07
2019-02-23T08:15:10.621Z,28.20
2019-02-23T08:17:37.420Z,26.52
2019-02-23T08:20:08.736Z,25.27
2019-02-23T08:22:37.659Z,26.60
2019-02-23T08:25:08.749Z,24.20
2019-02-23T08:27:35.983Z,25.12
2019-02-23T08:30:10.618Z,27.35
2019-02-23T08:32:37.618Z,26.10
2019-02-23T08:35:06.422Z,23.87
2019-02-23T08:37:34.084Z,24.47
2019-02-23T08:40:01.327Z,25.17
2019-02-23T08:42:28.307Z,26.23
2019-02-23T08:44:55.315Z,24.87
2019-02-23T08:47:22.241Z,26.50
2019-02-23T08:49:49.052Z,24.40
2019-02-23T08:52:15.878Z,22.60
2019-02-23T08:54:43.199Z,22.40
2019-02-23T08:57:10.247Z,22.65
2019-02-23T08:59:37.135Z,23.65
2019-02-23T09:02:04.216Z,23.38
2019-02-23T09:04:30.980Z,23.47
2019-02-23T09:06:57.794Z,22.62
2019-02-23T09:09:24.545Z,24.23
2019-02-23T09:11:52.127Z,23.80
2019-02-23T09:14:19.044Z,24.85
2019-02-23T09:16:47.367Z,17.10
2019-02-23T09:19:14.181Z,24.55
2019-02-23T09:21:41.237Z,24.07
2019-02-23T09:24:08.095Z,27.85
2019-02-23T09:26:35.641Z,23.67
2019-02-23T09:29:02.552Z,21.85
2019-02-23T09:31:30.959Z,22.73
2019-02-23T09:33:58.346Z,21.33
2019-02-23T09:36:25.362Z,24.00
2019-02-23T09:38:52.705Z,20.77
2019-02-23T09:41:20.619Z,19.80
2019-02-23T09:43:47.508Z,20.95
2019-02-23T09:46:14.364Z,21.42
2019-02-23T09:48:41.176Z,21.52
2019-02-23T09:51:08.031Z,21.12
2019-02-23T09:53:35.242Z,18.30
2019-02-23T09:56:05.488Z,20.82
2019-02-23T09:58:33.476Z,20.05
2019-02-23T10:01:00.624Z,23.92
2019-02-23T10:03:29.013Z,23.30
2019-02-23T10:05:59.513Z,21.23
2019-02-23T10:08:26.283Z,21.93
2019-02-23T10:10:57.608Z,20.77
2019-02-23T10:13:24.853Z,18.15
2019-02-23T10:15:51.620Z,27.80
2019-02-23T10:18:18.390Z,20.08
2019-02-23T10:20:47.690Z,19.45
2019-02-23T10:23:21.462Z,19.23
2019-02-23T10:25:43.260Z,19.25
2019-02-23T10:28:10.174Z,18.07
2019-02-23T10:30:37.413Z,18.27
2019-02-23T10:33:04.249Z,17.87
2019-02-23T10:35:32.644Z,20.10
2019-02-23T10:37:59.480Z,17.32
2019-02-23T10:40:26.413Z,20.97
2019-02-23T10:42:53.170Z,18.07
2019-02-23T10:45:20.018Z,15.72
2019-02-23T10:47:50.355Z,18.20
2019-02-23T10:50:17.283Z,15.63
2019-02-23T10:52:44.202Z,17.07
2019-02-23T10:55:14.347Z,16.75
2019-02-23T10:57:41.153Z,13.90
2019-02-23T11:00:15.427Z,16.37
2019-02-23T11:02:42.484Z,16.40
2019-02-23T11:05:10.420Z,13.68
2019-02-23T11:07:37.335Z,15.13
2019-02-23T11:10:08.336Z,14.75
2019-02-23T11:12:35.321Z,12.73
2019-02-23T11:15:02.376Z,13.28
2019-02-23T11:17:29.360Z,13.30
2019-02-23T11:19:56.491Z,12.15
2019-02-23T11:22:23.708Z,12.55
2019-02-23T11:24:50.785Z,11.83
2019-02-23T11:27:17.855Z,11.57
2019-02-23T11:29:44.700Z,11.53
2019-02-23T11:32:12.311Z,12.13
2019-02-23T11:34:39.086Z,12.43
2019-02-23T11:37:11.872Z,10.80
2019-02-23T11:39:38.980Z,11.55
2019-02-23T11:42:06.279Z,11.53
2019-02-23T11:44:33.249Z,11.80
2019-02-23T11:47:00.481Z,10.75
2019-02-23T11:49:27.731Z,11.12
2019-02-23T11:51:54.587Z,11.73
2019-02-23T11:54:21.524Z,10.58
2019-02-23T11:56:48.398Z,9.20
2019-02-23T11:59:15.148Z,10.28
2019-02-23T12:01:41.929Z,19.07
2019-02-23T12:04:08.717Z,17.60
2019-02-23T12:06:35.914Z,13.30
2019-02-23T12:09:08.844Z,9.65
2019-02-23T12:11:35.682Z,9.08
2019-02-23T12:14:05.771Z,12.28
2019-02-23T12:16:32.588Z,12.68
2019-02-23T12:18:59.332Z,8.85
2019-02-23T12:21:26.651Z,11.97
2019-02-23T12:23:53.638Z,10.15
2019-02-23T12:26:21.948Z,9.73
2019-02-23T12:28:49.235Z,8.78
2019-02-23T12:31:16.037Z,9.88
2019-02-23T12:33:42.914Z,7.85
2019-02-23T12:36:10.021Z,8.10
2019-02-23T12:38:36.895Z,8.35
2019-02-23T12:41:03.715Z,7.55
2019-02-23T12:43:30.700Z,7.55
2019-02-23T12:45:57.624Z,9.65
2019-02-23T12:48:24.608Z,8.93
2019-02-23T12:50:51.759Z,17.05
2019-02-23T12:53:24.547Z,9.15
2019-02-23T12:55:52.105Z,9.10
2019-02-23T12:58:19.093Z,8.68
2019-02-23T13:00:46.019Z,8.55
2019-02-23T13:03:13.345Z,7.28
2019-02-23T13:05:43.039Z,7.72
2019-02-23T13:08:09.966Z,9.40
2019-02-23T13:10:41.377Z,7.65
2019-02-23T13:13:44.585Z,9.18
2019-02-23T13:16:23.731Z,10.65
2019-02-23T13:19:24.231Z,8.28
2019-02-23T13:22:12.201Z,8.80
2019-02-23T13:24:47.766Z,8.93
2019-02-23T13:27:23.354Z,8.43
2019-02-23T13:30:18.057Z,9.10
2019-02-23T13:33:17.809Z,9.25
2019-02-23T13:36:05.932Z,6.87
2019-02-23T13:38:55.766Z,9.20
2019-02-23T13:41:50.338Z,7.20
2019-02-23T13:44:38.644Z,6.87
2019-02-23T13:47:17.114Z,6.83
2019-02-23T13:50:04.557Z,6.20
2019-02-23T13:53:14.903Z,6.67
2019-02-23T13:56:19.942Z,7.20
2019-02-23T13:59:34.468Z,6.08
2019-02-23T14:02:22.306Z,5.53
2019-02-23T14:05:19.078Z,7.42
2019-02-23T14:08:29.994Z,6.78
2019-02-23T14:11:30.727Z,8.83
2019-02-23T14:14:27.298Z,7.72
2019-02-23T14:17:21.122Z,5.78
2019-02-23T14:20:02.619Z,6.42
2019-02-23T14:23:12.730Z,6.65
2019-02-23T14:26:08.984Z,6.00
2019-02-23T14:29:05.345Z,8.30
2019-02-23T14:32:03.874Z,5.87
2019-02-23T14:34:48.494Z,6.55
2019-02-23T14:37:29.009Z,6.87
2019-02-23T14:40:34.759Z,5.62
2019-02-23T14:43:25.135Z,6.62
2019-02-23T14:46:22.474Z,6.85
2019-02-23T14:49:16.544Z,5.45
2019-02-23T14:51:55.351Z,6.10
2019-02-23T14:54:36.786Z,6.37
2019-02-23T14:57:37.262Z,6.20
2019-02-23T15:00:29.353Z,8.60
2019-02-23T15:03:31.039Z,6.25
2019-02-23T15:06:12.672Z,7.00
2019-02-23T15:08:50.959Z,8.13
2019-02-23T15:11:51.038Z,7.83
2019-02-23T15:14:33.588Z,11.85
2019-02-23T15:17:29.590Z,7.42
2019-02-23T15:20:28.580Z,9.78
2019-02-23T15:23:24.638Z,11.30
2019-02-23T15:26:46.418Z,6.83
2019-02-23T15:29:45.867Z,7.62
2019-02-23T15:32:41.838Z,5.87
2019-02-23T15:35:53.686Z,8.83
2019-02-23T15:39:08.500Z,7.58
2019-02-23T15:42:01.367Z,6.58
2019-02-23T15:44:54.889Z,6.67
2019-02-23T15:47:43.118Z,7.45
2019-02-23T15:50:13.624Z,7.60
2019-02-23T15:52:42.122Z,7.50
2019-02-23T15:55:10.181Z,5.97
2019-02-23T15:57:38.379Z,6.30
2019-02-23T16:00:07.608Z,7.17
2019-02-23T16:02:35.877Z,8.18
2019-02-23T16:05:02.828Z,5.70
2019-02-23T16:07:30.145Z,7.15
2019-02-23T16:09:57.016Z,9.85
2019-02-23T16:12:24.621Z,8.80
2019-02-23T16:14:51.700Z,9.00
2019-02-23T16:17:18.589Z,11.93
2019-02-23T16:19:45.588Z,7.95
2019-02-23T16:22:13.199Z,10.32
2019-02-23T16:24:40.665Z,8.48
2019-02-23T16:27:08.125Z,11.10
2019-02-23T16:29:39.758Z,8.45
2019-02-23T16:32:04.576Z,5.00
2019-02-23T16:34:31.312Z,4.95
2019-02-23T16:36:58.103Z,5.95
2019-02-23T16:39:24.963Z,5.55
2019-02-23T16:41:51.863Z,6.37
2019-02-23T16:44:19.043Z,6.50
2019-02-23T16:46:46.636Z,7.67
2019-02-23T16:49:14.194Z,7.55
2019-02-23T16:51:41.299Z,7.72
2019-02-23T16:54:08.266Z,7.62
2019-02-23T16:56:36.811Z,6.35
2019-02-23T16:59:04.369Z,7.47
2019-02-23T17:01:32.299Z,9.00
2019-02-23T17:03:59.722Z,6.95
2019-02-23T17:06:26.470Z,7.08
2019-02-23T17:08:54.178Z,7.92
2019-02-23T17:11:22.766Z,6.17
2019-02-23T17:13:53.064Z,8.50
2019-02-23T17:16:20.251Z,8.58
2019-02-23T17:18:49.262Z,6.12
2019-02-23T17:21:17.564Z,7.05
2019-02-23T17:23:45.397Z,9.68
2019-02-23T17:26:12.694Z,6.58
2019-02-23T17:28:40.145Z,7.37
2019-02-23T17:31:07.176Z,6.45
2019-02-23T17:33:34.190Z,6.70
2019-02-23T17:36:01.717Z,7.42
2019-02-23T17:38:30.430Z,7.75
2019-02-23T17:40:57.630Z,4.83
2019-02-23T17:43:25.591Z,8.83
2019-02-23T17:45:53.034Z,6.67
2019-02-23T17:48:19.789Z,7.75
2019-02-23T17:50:50.711Z,7.80
2019-02-23T17:53:17.734Z,6.87
2019-02-23T17:55:46.724Z,5.92
2019-02-23T17:58:14.993Z,6.12
2019-02-23T18:00:43.290Z,7.22
2019-02-23T18:03:12.406Z,12.70
2019-02-23T18:05:39.754Z,10.82
2019-02-23T18:08:09.244Z,6.80
2019-02-23T18:10:37.457Z,5.95
2019-02-23T18:13:04.350Z,6.05
2019-02-23T18:15:32.058Z,4.97
2019-02-23T18:17:59.455Z,4.90
2019-02-23T18:20:26.589Z,7.97
2019-02-23T18:22:54.337Z,5.30
2019-02-23T18:25:23.244Z,5.17
2019-02-23T18:27:50.026Z,5.30
2019-02-23T18:30:16.792Z,5.30
2019-02-23T18:32:43.560Z,6.62
2019-02-23T18:35:11.881Z,6.72
2019-02-23T18:37:38.950Z,9.40
2019-02-23T18:40:07.133Z,6.25
2019-02-23T18:42:34.465Z,7.62
2019-02-23T18:45:02.061Z,8.45
2019-02-23T18:47:29.956Z,6.97
2019-02-23T18:49:57.443Z,7.67
2019-02-23T18:52:24.743Z,8.38
2019-02-23T18:54:52.314Z,8.85
2019-02-23T18:57:20.708Z,5.65
2019-02-23T18:59:48.164Z,7.45
2019-02-23T19:02:15.750Z,6.17
2019-02-23T19:04:42.545Z,8.33
2019-02-23T19:07:09.870Z,6.65
2019-02-23T19:09:36.594Z,5.75
2019-02-23T19:12:04.057Z,6.83
2019-02-23T19:14:31.159Z,5.70
2019-02-23T19:16:58.720Z,6.87
2019-02-23T19:19:27.635Z,6.05
2019-02-23T19:21:55.378Z,7.70
2019-02-23T19:24:24.341Z,8.53
2019-02-23T19:26:53.590Z,8.98
2019-02-23T19:29:22.689Z,6.75
2019-02-23T19:31:50.353Z,7.28
2019-02-23T19:34:17.292Z,6.58
2019-02-23T19:36:44.459Z,7.78
2019-02-23T19:39:13.095Z,6.00
2019-02-23T19:41:45.891Z,6.08
2019-02-23T19:44:13.419Z,8.10
2019-02-23T19:46:46.259Z,7.03
2019-02-23T19:49:13.525Z,8.88
2019-02-23T19:51:40.723Z,8.43
2019-02-23T19:54:07.701Z,6.22
2019-02-23T19:56:34.578Z,7.97
2019-02-23T19:59:02.003Z,7.03
2019-02-23T20:01:29.222Z,5.12
2019-02-23T20:03:56.043Z,5.25
2019-02-23T20:06:23.229Z,6.45
2019-02-23T20:08:51.093Z,6.62
2019-02-23T20:11:18.264Z,6.60
2019-02-23T20:13:45.320Z,4.80
2019-02-23T20:16:12.181Z,11.83
2019-02-23T20:18:39.179Z,11.70
2019-02-23T20:21:06.095Z,7.00
2019-02-23T20:23:33.347Z,7.67
2019-02-23T20:26:02.547Z,6.72
2019-02-23T20:28:29.543Z,6.95
2019-02-23T20:30:57.120Z,5.90
2019-02-23T20:33:25.312Z,4.55
2019-02-23T20:35:56.500Z,7.42
2019-02-23T20:38:23.650Z,6.42
2019-02-23T20:40:51.265Z,6.97
2019-02-23T20:43:19.239Z,9.08
2019-02-23T20:45:46.515Z,6.53
2019-02-23T20:48:13.794Z,7.22
2019-02-23T20:50:41.526Z,5.87
2019-02-23T20:53:10.068Z,12.60
2019-02-23T20:55:39.161Z,5.83
2019-02-23T20:58:08.617Z,6.92
2019-02-23T21:00:35.553Z,6.47
2019-02-23T21:03:06.112Z,7.10
2019-02-23T21:05:33.539Z,7.25
2019-02-23T21:08:03.823Z,6.75
2019-02-23T21:10:31.219Z,7.50
2019-02-23T21:12:58.274Z,6.65
2019-02-23T21:15:25.198Z,6.45
2019-02-23T21:17:52.488Z,9.45
2019-02-23T21:20:20.092Z,9.38
2019-02-23T21:22:47.156Z,9.33
2019-02-23T21:25:14.109Z,10.15
2019-02-23T21:27:41.157Z,12.07
2019-02-23T21:30:09.668Z,8.45
2019-02-23T21:32:36.793Z,6.85
2019-02-23T21:35:09.984Z,9.08
2019-02-23T21:37:37.072Z,7.33
2019-02-23T21:40:08.350Z,7.40
2019-02-23T21:42:35.115Z,6.10
2019-02-23T21:45:03.945Z,7.95
2019-02-23T21:47:30.842Z,7.20
2019-02-23T21:49:58.217Z,9.13
2019-02-23T21:52:25.060Z,9.80
2019-02-23T21:54:52.176Z,11.55
2019-02-23T21:57:24.823Z,6.28
2019-02-23T21:59:52.226Z,8.43
2019-02-23T22:02:19.180Z,11.70
2019-02-23T22:04:46.416Z,8.03
2019-02-23T22:07:13.331Z,6.35
2019-02-23T22:09:41.659Z,8.63
2019-02-23T22:12:08.471Z,6.72
2019-02-23T22:14:35.245Z,8.55
2019-02-23T22:17:04.566Z,8.13
2019-02-23T22:19:31.676Z,8.60
2019-02-23T22:21:58.945Z,11.40
2019-02-23T22:24:25.857Z,9.90
2019-02-23T22:26:53.066Z,8.55
2019-02-23T22:29:19.938Z,8.23
2019-02-23T22:31:47.207Z,7.03
2019-02-23T22:34:14.192Z,10.23
2019-02-23T22:36:40.994Z,8.65
2019-02-23T22:39:08.429Z,7.80
2019-02-23T22:41:35.318Z,7.47
2019-02-23T22:44:02.507Z,8.90
2019-02-23T22:46:30.002Z,9.45
2019-02-23T22:48:57.261Z,7.72
2019-02-23T22:51:24.430Z,6.45
2019-02-23T22:53:51.292Z,9.00
2019-02-23T22:56:19.438Z,7.47
2019-02-23T22:58:46.413Z,7.55
2019-02-23T23:01:13.488Z,8.03
2019-02-23T23:03:40.793Z,7.70
2019-02-23T23:06:08.361Z,10.50
2019-02-23T23:08:35.231Z,9.20
2019-02-23T23:11:02.042Z,8.70
2019-02-23T23:13:28.813Z,7.83
2019-02-23T23:15:56.176Z,9.58
2019-02-23T23:18:23.110Z,7.35
2019-02-23T23:20:49.845Z,9.68
2019-02-23T23:23:16.611Z,8.05
2019-02-23T23:25:43.464Z,8.93
2019-02-23T23:28:11.396Z,9.23
2019-02-23T23:30:39.103Z,11.28
2019-02-23T23:33:05.947Z,8.78
2019-02-23T23:35:32.847Z,7.72
2019-02-23T23:37:59.675Z,7.40
2019-02-23T23:40:26.466Z,6.65
2019-02-23T23:42:58.142Z,8.05
2019-02-23T23:45:22.220Z,7.33
2019-02-23T23:47:49.941Z,9.28
2019-02-23T23:50:16.777Z,8.53
2019-02-23T23:52:43.626Z,7.67
2019-02-23T23:55:11.626Z,6.87
2019-02-23T23:57:38.959Z,8.95
